sensor_id;sensor_type;location;lat;lon;timestamp;P1;durP1;ratioP1;P2;durP2;ratioP2
12048;SDS011;6085;49.452;8.502;2023-11-18T00:03:29;1.80;;;1.70;;
12048;SDS011;6085;49.452;8.502;2023-11-18T00:07:32;2.05;;;1.23;;
12048;SDS011;6085;49.452;8.502;2023-11-18T00:11:34;1.30;;;1.15;;
12048;SDS011;6085;49.452;8.502;2023-11-18T00:15:36;1.42;;;1.33;;
12048;SDS011;6085;49.452;8.502;2023-11-18T00:19:37;1.60;;;1.13;;
12048;SDS011;6085;49.452;8.502;2023-11-18T00:23:41;1.80;;;1.70;;
12048;SDS011;6085;49.452;8.502;2023-11-18T00:27:43;2.42;;;1.77;;
12048;SDS011;6085;49.452;8.502;2023-11-18T00:31:44;2.55;;;1.60;;
12048;SDS011;6085;49.452;8.502;2023-11-18T00:35:46;1.52;;;1.30;;
12048;SDS011;6085;49.452;8.502;2023-11-18T00:39:49;2.22;;;1.58;;
12048;SDS011;6085;49.452;8.502;2023-11-18T00:43:51;1.50;;;1.40;;
12048;SDS011;6085;49.452;8.502;2023-11-18T00:47:53;1.50;;;1.40;;
12048;SDS011;6085;49.452;8.502;2023-11-18T00:51:55;1.55;;;1.40;;
12048;SDS011;6085;49.452;8.502;2023-11-18T00:55:58;1.35;;;1.33;;
12048;SDS011;6085;49.452;8.502;2023-11-18T01:00:01;2.13;;;1.60;;
12048;SDS011;6085;49.452;8.502;2023-11-18T01:04:03;2.00;;;1.77;;
12048;SDS011;6085;49.452;8.502;2023-11-18T01:08:05;1.50;;;1.38;;
12048;SDS011;6085;49.452;8.502;2023-11-18T01:12:10;1.33;;;1.23;;
12048;SDS011;6085;49.452;8.502;2023-11-18T01:16:12;1.88;;;1.77;;
12048;SDS011;6085;49.452;8.502;2023-11-18T01:20:15;1.02;;;1.02;;
12048;SDS011;6085;49.452;8.502;2023-11-18T01:24:21;1.00;;;1.00;;
12048;SDS011;6085;49.452;8.502;2023-11-18T01:28:25;2.72;;;1.77;;
12048;SDS011;6085;49.452;8.502;2023-11-18T01:32:29;2.33;;;1.55;;
12048;SDS011;6085;49.452;8.502;2023-11-18T01:36:31;1.77;;;1.67;;
12048;SDS011;6085;49.452;8.502;2023-11-18T01:40:33;1.35;;;1.23;;
12048;SDS011;6085;49.452;8.502;2023-11-18T01:44:36;1.70;;;1.55;;
12048;SDS011;6085;49.452;8.502;2023-11-18T01:48:38;2.53;;;1.70;;
12048;SDS011;6085;49.452;8.502;2023-11-18T01:52:42;1.08;;;1.00;;
12048;SDS011;6085;49.452;8.502;2023-11-18T01:56:45;2.08;;;1.88;;
12048;SDS011;6085;49.452;8.502;2023-11-18T02:00:49;3.22;;;1.70;;
12048;SDS011;6085;49.452;8.502;2023-11-18T02:04:52;2.10;;;1.85;;
12048;SDS011;6085;49.452;8.502;2023-11-18T02:08:55;1.92;;;1.80;;
12048;SDS011;6085;49.452;8.502;2023-11-18T02:12:57;1.58;;;1.45;;
12048;SDS011;6085;49.452;8.502;2023-11-18T02:17:12;2.08;;;1.80;;
12048;SDS011;6085;49.452;8.502;2023-11-18T02:21:16;2.38;;;1.75;;
12048;SDS011;6085;49.452;8.502;2023-11-18T02:25:18;2.15;;;1.63;;
12048;SDS011;6085;49.452;8.502;2023-11-18T02:29:22;1.70;;;1.60;;
12048;SDS011;6085;49.452;8.502;2023-11-18T02:33:27;1.80;;;1.67;;
12048;SDS011;6085;49.452;8.502;2023-11-18T02:37:35;2.67;;;1.60;;
12048;SDS011;6085;49.452;8.502;2023-11-18T02:41:39;3.15;;;1.40;;
12048;SDS011;6085;49.452;8.502;2023-11-18T02:45:46;1.67;;;1.52;;
12048;SDS011;6085;49.452;8.502;2023-11-18T02:49:53;2.50;;;1.73;;
12048;SDS011;6085;49.452;8.502;2023-11-18T02:53:56;4.13;;;2.15;;
12048;SDS011;6085;49.452;8.502;2023-11-18T02:57:58;4.18;;;2.90;;
12048;SDS011;6085;49.452;8.502;2023-11-18T03:02:01;4.13;;;2.33;;
12048;SDS011;6085;49.452;8.502;2023-11-18T03:06:03;3.50;;;2.60;;
12048;SDS011;6085;49.452;8.502;2023-11-18T03:10:06;4.18;;;2.92;;
12048;SDS011;6085;49.452;8.502;2023-11-18T03:14:12;4.22;;;2.40;;
12048;SDS011;6085;49.452;8.502;2023-11-18T03:18:15;4.50;;;2.90;;
12048;SDS011;6085;49.452;8.502;2023-11-18T03:22:17;1.88;;;1.77;;
12048;SDS011;6085;49.452;8.502;2023-11-18T03:26:21;3.30;;;2.60;;
12048;SDS011;6085;49.452;8.502;2023-11-18T03:30:24;1.90;;;1.70;;
12048;SDS011;6085;49.452;8.502;2023-11-18T03:34:27;2.25;;;2.05;;
12048;SDS011;6085;49.452;8.502;2023-11-18T03:38:29;3.90;;;3.03;;
12048;SDS011;6085;49.452;8.502;2023-11-18T03:42:33;4.13;;;3.17;;
12048;SDS011;6085;49.452;8.502;2023-11-18T03:46:37;2.67;;;2.35;;
12048;SDS011;6085;49.452;8.502;2023-11-18T03:50:40;3.35;;;2.95;;
12048;SDS011;6085;49.452;8.502;2023-11-18T03:54:44;4.20;;;2.75;;
12048;SDS011;6085;49.452;8.502;2023-11-18T03:58:46;2.95;;;2.53;;
12048;SDS011;6085;49.452;8.502;2023-11-18T04:02:48;5.63;;;3.47;;
12048;SDS011;6085;49.452;8.502;2023-11-18T04:06:51;4.78;;;3.42;;
12048;SDS011;6085;49.452;8.502;2023-11-18T04:10:53;4.00;;;3.22;;
12048;SDS011;6085;49.452;8.502;2023-11-18T04:14:55;4.07;;;2.95;;
12048;SDS011;6085;49.452;8.502;2023-11-18T04:18:57;3.13;;;2.45;;
12048;SDS011;6085;49.452;8.502;2023-11-18T04:23:00;3.22;;;2.88;;
12048;SDS011;6085;49.452;8.502;2023-11-18T04:27:02;2.85;;;2.30;;
12048;SDS011;6085;49.452;8.502;2023-11-18T04:31:04;5.93;;;3.22;;
12048;SDS011;6085;49.452;8.502;2023-11-18T04:35:06;7.07;;;2.72;;
12048;SDS011;6085;49.452;8.502;2023-11-18T04:39:13;2.95;;;2.45;;
12048;SDS011;6085;49.452;8.502;2023-11-18T04:43:15;3.33;;;2.70;;
12048;SDS011;6085;49.452;8.502;2023-11-18T04:47:17;4.18;;;3.40;;
12048;SDS011;6085;49.452;8.502;2023-11-18T04:51:19;5.63;;;3.72;;
12048;SDS011;6085;49.452;8.502;2023-11-18T04:55:22;4.45;;;3.10;;
12048;SDS011;6085;49.452;8.502;2023-11-18T04:59:26;3.47;;;3.05;;
12048;SDS011;6085;49.452;8.502;2023-11-18T05:03:27;5.55;;;3.45;;
12048;SDS011;6085;49.452;8.502;2023-11-18T05:07:30;4.43;;;2.83;;
12048;SDS011;6085;49.452;8.502;2023-11-18T05:11:33;5.57;;;3.38;;
12048;SDS011;6085;49.452;8.502;2023-11-18T05:15:35;3.65;;;3.15;;
12048;SDS011;6085;49.452;8.502;2023-11-18T05:19:37;4.53;;;2.88;;
12048;SDS011;6085;49.452;8.502;2023-11-18T05:23:39;4.53;;;2.45;;
12048;SDS011;6085;49.452;8.502;2023-11-18T05:27:42;3.85;;;2.67;;
12048;SDS011;6085;49.452;8.502;2023-11-18T05:31:44;4.13;;;2.70;;
12048;SDS011;6085;49.452;8.502;2023-11-18T05:35:46;3.92;;;2.78;;
12048;SDS011;6085;49.452;8.502;2023-11-18T05:39:49;4.68;;;3.40;;
12048;SDS011;6085;49.452;8.502;2023-11-18T05:44:00;4.70;;;3.13;;
12048;SDS011;6085;49.452;8.502;2023-11-18T05:48:02;7.38;;;3.22;;
12048;SDS011;6085;49.452;8.502;2023-11-18T05:52:04;5.00;;;3.13;;
12048;SDS011;6085;49.452;8.502;2023-11-18T05:56:07;5.03;;;3.20;;
12048;SDS011;6085;49.452;8.502;2023-11-18T06:00:11;5.88;;;4.18;;
12048;SDS011;6085;49.452;8.502;2023-11-18T06:04:15;9.32;;;5.10;;
12048;SDS011;6085;49.452;8.502;2023-11-18T06:08:17;5.15;;;3.13;;
12048;SDS011;6085;49.452;8.502;2023-11-18T06:12:19;8.27;;;4.72;;
12048;SDS011;6085;49.452;8.502;2023-11-18T06:16:22;6.28;;;4.15;;
12048;SDS011;6085;49.452;8.502;2023-11-18T06:20:26;7.03;;;4.53;;
12048;SDS011;6085;49.452;8.502;2023-11-18T06:24:28;4.78;;;3.42;;
12048;SDS011;6085;49.452;8.502;2023-11-18T06:28:30;6.10;;;4.55;;
12048;SDS011;6085;49.452;8.502;2023-11-18T06:32:34;7.47;;;4.95;;
12048;SDS011;6085;49.452;8.502;2023-11-18T06:36:36;10.15;;;5.40;;
12048;SDS011;6085;49.452;8.502;2023-11-18T06:40:41;7.88;;;4.53;;
12048;SDS011;6085;49.452;8.502;2023-11-18T06:44:43;6.50;;;4.55;;
12048;SDS011;6085;49.452;8.502;2023-11-18T06:48:46;7.60;;;4.72;;
12048;SDS011;6085;49.452;8.502;2023-11-18T06:52:49;7.65;;;4.85;;
12048;SDS011;6085;49.452;8.502;2023-11-18T06:56:51;6.97;;;3.45;;
12048;SDS011;6085;49.452;8.502;2023-11-18T07:00:53;7.50;;;4.28;;
12048;SDS011;6085;49.452;8.502;2023-11-18T07:04:57;7.78;;;5.15;;
12048;SDS011;6085;49.452;8.502;2023-11-18T07:08:59;6.72;;;3.50;;
12048;SDS011;6085;49.452;8.502;2023-11-18T07:13:01;5.57;;;4.38;;
12048;SDS011;6085;49.452;8.502;2023-11-18T07:17:03;7.43;;;4.45;;
12048;SDS011;6085;49.452;8.502;2023-11-18T07:21:06;6.72;;;3.95;;
12048;SDS011;6085;49.452;8.502;2023-11-18T07:25:09;7.40;;;4.07;;
12048;SDS011;6085;49.452;8.502;2023-11-18T07:29:11;7.38;;;4.05;;
12048;SDS011;6085;49.452;8.502;2023-11-18T07:33:14;6.07;;;4.03;;
12048;SDS011;6085;49.452;8.502;2023-11-18T07:37:17;3.80;;;2.80;;
12048;SDS011;6085;49.452;8.502;2023-11-18T07:41:20;6.25;;;3.70;;
12048;SDS011;6085;49.452;8.502;2023-11-18T07:45:24;6.05;;;3.53;;
12048;SDS011;6085;49.452;8.502;2023-11-18T07:49:26;5.38;;;3.75;;
12048;SDS011;6085;49.452;8.502;2023-11-18T07:53:30;4.13;;;3.03;;
12048;SDS011;6085;49.452;8.502;2023-11-18T07:57:32;4.97;;;3.13;;
12048;SDS011;6085;49.452;8.502;2023-11-18T08:01:36;4.47;;;3.10;;
12048;SDS011;6085;49.452;8.502;2023-11-18T08:05:44;3.67;;;3.00;;
12048;SDS011;6085;49.452;8.502;2023-11-18T08:09:50;5.13;;;3.30;;
12048;SDS011;6085;49.452;8.502;2023-11-18T08:13:52;6.70;;;3.75;;
12048;SDS011;6085;49.452;8.502;2023-11-18T08:17:53;5.70;;;3.63;;
12048;SDS011;6085;49.452;8.502;2023-11-18T08:21:55;4.47;;;3.22;;
12048;SDS011;6085;49.452;8.502;2023-11-18T08:25:59;3.67;;;2.90;;
12048;SDS011;6085;49.452;8.502;2023-11-18T08:30:01;6.78;;;3.83;;
12048;SDS011;6085;49.452;8.502;2023-11-18T08:34:06;6.63;;;3.25;;
12048;SDS011;6085;49.452;8.502;2023-11-18T08:38:10;8.77;;;4.18;;
12048;SDS011;6085;49.452;8.502;2023-11-18T08:42:13;5.35;;;4.00;;
12048;SDS011;6085;49.452;8.502;2023-11-18T08:46:16;4.50;;;3.63;;
12048;SDS011;6085;49.452;8.502;2023-11-18T08:50:18;6.88;;;3.78;;
12048;SDS011;6085;49.452;8.502;2023-11-18T08:54:23;5.72;;;4.03;;
12048;SDS011;6085;49.452;8.502;2023-11-18T08:58:37;5.57;;;3.50;;
12048;SDS011;6085;49.452;8.502;2023-11-18T09:02:40;5.43;;;4.05;;
12048;SDS011;6085;49.452;8.502;2023-11-18T09:06:43;5.35;;;3.97;;
12048;SDS011;6085;49.452;8.502;2023-11-18T09:10:48;5.88;;;3.83;;
12048;SDS011;6085;49.452;8.502;2023-11-18T09:14:55;6.55;;;3.45;;
12048;SDS011;6085;49.452;8.502;2023-11-18T09:18:57;5.70;;;3.80;;
12048;SDS011;6085;49.452;8.502;2023-11-18T09:22:59;4.38;;;3.03;;
12048;SDS011;6085;49.452;8.502;2023-11-18T09:27:02;4.78;;;3.10;;
12048;SDS011;6085;49.452;8.502;2023-11-18T09:31:07;6.15;;;3.53;;
12048;SDS011;6085;49.452;8.502;2023-11-18T09:35:11;4.40;;;2.97;;
12048;SDS011;6085;49.452;8.502;2023-11-18T09:39:13;4.78;;;3.90;;
12048;SDS011;6085;49.452;8.502;2023-11-18T09:43:29;6.28;;;3.78;;
12048;SDS011;6085;49.452;8.502;2023-11-18T09:47:34;5.20;;;3.33;;
12048;SDS011;6085;49.452;8.502;2023-11-18T09:51:41;4.72;;;3.05;;
12048;SDS011;6085;49.452;8.502;2023-11-18T09:55:49;5.10;;;3.58;;
12048;SDS011;6085;49.452;8.502;2023-11-18T10:00:01;3.22;;;2.90;;
12048;SDS011;6085;49.452;8.502;2023-11-18T10:04:21;4.15;;;3.05;;
12048;SDS011;6085;49.452;8.502;2023-11-18T10:08:27;2.95;;;2.63;;
12048;SDS011;6085;49.452;8.502;2023-11-18T10:12:30;5.50;;;2.22;;
12048;SDS011;6085;49.452;8.502;2023-11-18T10:16:32;3.75;;;3.15;;
12048;SDS011;6085;49.452;8.502;2023-11-18T10:20:45;2.78;;;2.58;;
12048;SDS011;6085;49.452;8.502;2023-11-18T10:24:47;3.50;;;2.83;;
12048;SDS011;6085;49.452;8.502;2023-11-18T10:28:52;6.97;;;3.05;;
12048;SDS011;6085;49.452;8.502;2023-11-18T10:32:57;3.35;;;2.60;;
12048;SDS011;6085;49.452;8.502;2023-11-18T10:37:07;4.22;;;2.55;;
12048;SDS011;6085;49.452;8.502;2023-11-18T10:41:11;2.78;;;2.42;;
12048;SDS011;6085;49.452;8.502;2023-11-18T10:45:13;3.13;;;2.83;;
12048;SDS011;6085;49.452;8.502;2023-11-18T10:49:25;2.58;;;2.38;;
12048;SDS011;6085;49.452;8.502;2023-11-18T10:53:30;2.90;;;2.38;;
12048;SDS011;6085;49.452;8.502;2023-11-18T10:57:33;2.35;;;2.13;;
12048;SDS011;6085;49.452;8.502;2023-11-18T11:01:36;5.10;;;2.92;;
12048;SDS011;6085;49.452;8.502;2023-11-18T11:05:42;2.60;;;2.22;;
12048;SDS011;6085;49.452;8.502;2023-11-18T11:09:45;3.65;;;2.40;;
12048;SDS011;6085;49.452;8.502;2023-11-18T11:13:49;3.17;;;2.35;;
12048;SDS011;6085;49.452;8.502;2023-11-18T11:17:57;2.13;;;1.92;;
12048;SDS011;6085;49.452;8.502;2023-11-18T11:22:08;2.58;;;2.38;;
12048;SDS011;6085;49.452;8.502;2023-11-18T11:26:21;2.67;;;2.47;;
12048;SDS011;6085;49.452;8.502;2023-11-18T11:30:31;2.33;;;2.05;;
12048;SDS011;6085;49.452;8.502;2023-11-18T11:34:46;2.78;;;2.13;;
12048;SDS011;6085;49.452;8.502;2023-11-18T11:38:53;3.17;;;2.47;;
12048;SDS011;6085;49.452;8.502;2023-11-18T11:42:58;1.52;;;1.38;;
12048;SDS011;6085;49.452;8.502;2023-11-18T11:47:05;1.50;;;1.40;;
12048;SDS011;6085;49.452;8.502;2023-11-18T11:51:10;1.73;;;1.58;;
12048;SDS011;6085;49.452;8.502;2023-11-18T11:55:22;1.50;;;1.40;;
12048;SDS011;6085;49.452;8.502;2023-11-18T11:59:53;1.88;;;1.40;;
12048;SDS011;6085;49.452;8.502;2023-11-18T12:03:56;3.08;;;1.80;;
12048;SDS011;6085;49.452;8.502;2023-11-18T12:08:01;1.58;;;1.48;;
12048;SDS011;6085;49.452;8.502;2023-11-18T12:12:14;5.10;;;1.63;;
12048;SDS011;6085;49.452;8.502;2023-11-18T12:16:20;2.63;;;1.50;;
12048;SDS011;6085;49.452;8.502;2023-11-18T12:20:40;1.90;;;1.63;;
12048;SDS011;6085;49.452;8.502;2023-11-18T12:29:40;1.70;;;1.60;;
12048;SDS011;6085;49.452;8.502;2023-11-18T12:34:00;1.67;;;1.48;;
12048;SDS011;6085;49.452;8.502;2023-11-18T12:42:58;2.33;;;1.50;;
12048;SDS011;6085;49.452;8.502;2023-11-18T12:47:05;1.98;;;1.60;;
12048;SDS011;6085;49.452;8.502;2023-11-18T12:51:16;1.50;;;1.40;;
12048;SDS011;6085;49.452;8.502;2023-11-18T12:55:20;1.23;;;1.08;;
12048;SDS011;6085;49.452;8.502;2023-11-18T12:59:22;1.13;;;1.08;;
12048;SDS011;6085;49.452;8.502;2023-11-18T13:03:24;2.33;;;1.25;;
12048;SDS011;6085;49.452;8.502;2023-11-18T13:07:27;1.00;;;1.00;;
12048;SDS011;6085;49.452;8.502;2023-11-18T13:11:29;1.25;;;1.25;;
12048;SDS011;6085;49.452;8.502;2023-11-18T13:15:31;1.33;;;1.20;;
12048;SDS011;6085;49.452;8.502;2023-11-18T13:19:34;1.33;;;1.10;;
12048;SDS011;6085;49.452;8.502;2023-11-18T13:23:38;1.58;;;1.27;;
12048;SDS011;6085;49.452;8.502;2023-11-18T13:27:39;1.27;;;1.17;;
12048;SDS011;6085;49.452;8.502;2023-11-18T13:31:41;1.42;;;1.33;;
12048;SDS011;6085;49.452;8.502;2023-11-18T13:35:44;1.02;;;0.95;;
12048;SDS011;6085;49.452;8.502;2023-11-18T13:39:54;1.08;;;1.08;;
12048;SDS011;6085;49.452;8.502;2023-11-18T13:43:56;0.85;;;0.82;;
12048;SDS011;6085;49.452;8.502;2023-11-18T13:47:59;1.05;;;1.02;;
12048;SDS011;6085;49.452;8.502;2023-11-18T13:52:02;3.00;;;0.95;;
12048;SDS011;6085;49.452;8.502;2023-11-18T13:56:08;1.20;;;1.10;;
12048;SDS011;6085;49.452;8.502;2023-11-18T14:00:11;0.90;;;0.80;;
12048;SDS011;6085;49.452;8.502;2023-11-18T14:04:16;0.80;;;0.80;;
12048;SDS011;6085;49.452;8.502;2023-11-18T14:08:18;3.72;;;1.33;;
12048;SDS011;6085;49.452;8.502;2023-11-18T14:12:21;0.80;;;0.80;;
12048;SDS011;6085;49.452;8.502;2023-11-18T14:16:26;1.75;;;1.45;;
12048;SDS011;6085;49.452;8.502;2023-11-18T14:20:28;1.13;;;1.02;;
12048;SDS011;6085;49.452;8.502;2023-11-18T14:24:31;1.02;;;1.02;;
12048;SDS011;6085;49.452;8.502;2023-11-18T14:28:34;1.85;;;1.20;;
12048;SDS011;6085;49.452;8.502;2023-11-18T14:32:37;1.38;;;1.10;;
12048;SDS011;6085;49.452;8.502;2023-11-18T14:36:40;0.93;;;0.93;;
12048;SDS011;6085;49.452;8.502;2023-11-18T14:40:42;0.60;;;0.60;;
12048;SDS011;6085;49.452;8.502;2023-11-18T14:44:45;0.85;;;0.85;;
12048;SDS011;6085;49.452;8.502;2023-11-18T14:48:49;1.73;;;0.90;;
12048;SDS011;6085;49.452;8.502;2023-11-18T14:52:51;0.73;;;0.73;;
12048;SDS011;6085;49.452;8.502;2023-11-18T14:56:59;0.90;;;0.90;;
12048;SDS011;6085;49.452;8.502;2023-11-18T15:01:03;1.00;;;0.90;;
12048;SDS011;6085;49.452;8.502;2023-11-18T15:05:07;0.80;;;0.80;;
12048;SDS011;6085;49.452;8.502;2023-11-18T15:09:09;0.98;;;0.95;;
12048;SDS011;6085;49.452;8.502;2023-11-18T15:13:12;1.10;;;1.10;;
12048;SDS011;6085;49.452;8.502;2023-11-18T15:17:16;1.13;;;1.13;;
12048;SDS011;6085;49.452;8.502;2023-11-18T15:21:18;7.32;;;1.50;;
12048;SDS011;6085;49.452;8.502;2023-11-18T15:25:20;0.77;;;0.77;;
12048;SDS011;6085;49.452;8.502;2023-11-18T15:29:22;1.52;;;1.17;;
12048;SDS011;6085;49.452;8.502;2023-11-18T15:33:33;1.83;;;0.90;;
12048;SDS011;6085;49.452;8.502;2023-11-18T15:37:35;1.60;;;1.13;;
12048;SDS011;6085;49.452;8.502;2023-11-18T15:41:38;1.50;;;1.40;;
12048;SDS011;6085;49.452;8.502;2023-11-18T15:45:40;1.67;;;1.58;;
12048;SDS011;6085;49.452;8.502;2023-11-18T15:49:46;1.77;;;1.25;;
12048;SDS011;6085;49.452;8.502;2023-11-18T15:53:48;3.53;;;1.48;;
12048;SDS011;6085;49.452;8.502;2023-11-18T15:57:51;1.65;;;1.38;;
12048;SDS011;6085;49.452;8.502;2023-11-18T16:01:53;2.05;;;1.67;;
12048;SDS011;6085;49.452;8.502;2023-11-18T16:05:56;1.80;;;1.58;;
12048;SDS011;6085;49.452;8.502;2023-11-18T16:09:58;2.00;;;1.80;;
12048;SDS011;6085;49.452;8.502;2023-11-18T16:14:03;2.17;;;1.98;;
12048;SDS011;6085;49.452;8.502;2023-11-18T16:18:06;1.25;;;1.15;;
12048;SDS011;6085;49.452;8.502;2023-11-18T16:22:09;1.17;;;1.10;;
12048;SDS011;6085;49.452;8.502;2023-11-18T16:26:11;1.73;;;1.25;;
12048;SDS011;6085;49.452;8.502;2023-11-18T16:30:13;2.70;;;1.15;;
12048;SDS011;6085;49.452;8.502;2023-11-18T16:34:17;1.60;;;1.50;;
12048;SDS011;6085;49.452;8.502;2023-11-18T16:38:21;1.63;;;1.52;;
12048;SDS011;6085;49.452;8.502;2023-11-18T16:42:24;1.70;;;1.60;;
12048;SDS011;6085;49.452;8.502;2023-11-18T16:46:28;0.88;;;0.88;;
12048;SDS011;6085;49.452;8.502;2023-11-18T16:50:31;2.00;;;1.50;;
12048;SDS011;6085;49.452;8.502;2023-11-18T16:54:34;2.45;;;1.58;;
12048;SDS011;6085;49.452;8.502;2023-11-18T16:58:36;2.72;;;2.30;;
12048;SDS011;6085;49.452;8.502;2023-11-18T17:02:39;2.60;;;1.88;;
12048;SDS011;6085;49.452;8.502;2023-11-18T17:06:41;2.25;;;1.88;;
12048;SDS011;6085;49.452;8.502;2023-11-18T17:10:46;1.17;;;1.00;;
12048;SDS011;6085;49.452;8.502;2023-11-18T17:14:53;1.42;;;0.88;;
12048;SDS011;6085;49.452;8.502;2023-11-18T17:18:55;1.15;;;1.10;;
12048;SDS011;6085;49.452;8.502;2023-11-18T17:22:57;1.17;;;1.08;;
12048;SDS011;6085;49.452;8.502;2023-11-18T17:27:00;1.23;;;1.13;;
12048;SDS011;6085;49.452;8.502;2023-11-18T17:31:04;1.80;;;1.70;;
12048;SDS011;6085;49.452;8.502;2023-11-18T17:35:07;1.50;;;1.40;;
12048;SDS011;6085;49.452;8.502;2023-11-18T17:39:10;1.35;;;1.25;;
12048;SDS011;6085;49.452;8.502;2023-11-18T17:43:15;1.50;;;1.40;;
12048;SDS011;6085;49.452;8.502;2023-11-18T17:47:17;2.33;;;1.35;;
12048;SDS011;6085;49.452;8.502;2023-11-18T17:51:20;5.28;;;1.92;;
12048;SDS011;6085;49.452;8.502;2023-11-18T17:55:23;2.15;;;1.50;;
12048;SDS011;6085;49.452;8.502;2023-11-18T17:59:29;1.23;;;1.13;;
12048;SDS011;6085;49.452;8.502;2023-11-18T18:03:30;1.40;;;1.30;;
12048;SDS011;6085;49.452;8.502;2023-11-18T18:07:32;1.48;;;1.08;;
12048;SDS011;6085;49.452;8.502;2023-11-18T18:11:34;3.10;;;1.17;;
12048;SDS011;6085;49.452;8.502;2023-11-18T18:15:37;1.65;;;1.55;;
12048;SDS011;6085;49.452;8.502;2023-11-18T18:19:39;1.67;;;1.58;;
12048;SDS011;6085;49.452;8.502;2023-11-18T18:23:41;2.45;;;1.33;;
12048;SDS011;6085;49.452;8.502;2023-11-18T18:27:43;1.20;;;1.08;;
12048;SDS011;6085;49.452;8.502;2023-11-18T18:31:47;2.20;;;1.67;;
12048;SDS011;6085;49.452;8.502;2023-11-18T18:35:49;1.30;;;1.20;;
12048;SDS011;6085;49.452;8.502;2023-11-18T18:39:51;1.25;;;1.17;;
12048;SDS011;6085;49.452;8.502;2023-11-18T18:43:53;2.47;;;2.28;;
12048;SDS011;6085;49.452;8.502;2023-11-18T18:47:56;1.90;;;1.63;;
12048;SDS011;6085;49.452;8.502;2023-11-18T18:51:59;1.40;;;1.40;;
12048;SDS011;6085;49.452;8.502;2023-11-18T18:56:01;1.73;;;0.95;;
12048;SDS011;6085;49.452;8.502;2023-11-18T19:00:05;0.98;;;0.98;;
12048;SDS011;6085;49.452;8.502;2023-11-18T19:04:13;1.15;;;1.08;;
12048;SDS011;6085;49.452;8.502;2023-11-18T19:08:14;1.30;;;1.20;;
12048;SDS011;6085;49.452;8.502;2023-11-18T19:12:16;1.60;;;1.52;;
12048;SDS011;6085;49.452;8.502;2023-11-18T19:16:18;2.38;;;1.38;;
12048;SDS011;6085;49.452;8.502;2023-11-18T19:20:22;1.08;;;1.08;;
12048;SDS011;6085;49.452;8.502;2023-11-18T19:24:24;1.85;;;1.30;;
12048;SDS011;6085;49.452;8.502;2023-11-18T19:28:26;1.38;;;1.38;;
12048;SDS011;6085;49.452;8.502;2023-11-18T19:32:28;2.95;;;1.70;;
12048;SDS011;6085;49.452;8.502;2023-11-18T19:36:32;1.73;;;1.63;;
12048;SDS011;6085;49.452;8.502;2023-11-18T19:40:34;1.55;;;1.45;;
12048;SDS011;6085;49.452;8.502;2023-11-18T19:44:36;1.15;;;0.98;;
12048;SDS011;6085;49.452;8.502;2023-11-18T19:48:38;0.95;;;0.95;;
12048;SDS011;6085;49.452;8.502;2023-11-18T19:52:41;1.95;;;1.70;;
12048;SDS011;6085;49.452;8.502;2023-11-18T19:56:43;2.25;;;1.80;;
12048;SDS011;6085;49.452;8.502;2023-11-18T20:00:45;1.40;;;1.30;;
12048;SDS011;6085;49.452;8.502;2023-11-18T20:04:47;1.20;;;1.10;;
12048;SDS011;6085;49.452;8.502;2023-11-18T20:08:50;1.55;;;1.45;;
12048;SDS011;6085;49.452;8.502;2023-11-18T20:12:52;1.33;;;1.23;;
12048;SDS011;6085;49.452;8.502;2023-11-18T20:16:53;1.50;;;1.35;;
12048;SDS011;6085;49.452;8.502;2023-11-18T20:20:56;1.30;;;1.30;;
12048;SDS011;6085;49.452;8.502;2023-11-18T20:24:59;2.45;;;1.20;;
12048;SDS011;6085;49.452;8.502;2023-11-18T20:29:01;2.83;;;1.52;;
12048;SDS011;6085;49.452;8.502;2023-11-18T20:33:03;1.67;;;1.52;;
12048;SDS011;6085;49.452;8.502;2023-11-18T20:37:05;4.25;;;1.55;;
12048;SDS011;6085;49.452;8.502;2023-11-18T20:41:08;1.35;;;1.23;;
12048;SDS011;6085;49.452;8.502;2023-11-18T20:45:13;1.55;;;1.45;;
12048;SDS011;6085;49.452;8.502;2023-11-18T20:49:17;1.30;;;1.20;;
12048;SDS011;6085;49.452;8.502;2023-11-18T20:53:20;1.10;;;1.10;;
12048;SDS011;6085;49.452;8.502;2023-11-18T20:57:24;1.20;;;1.20;;
12048;SDS011;6085;49.452;8.502;2023-11-18T21:01:26;0.90;;;0.90;;
12048;SDS011;6085;49.452;8.502;2023-11-18T21:05:28;1.27;;;1.10;;
12048;SDS011;6085;49.452;8.502;2023-11-18T21:09:30;1.63;;;1.33;;
12048;SDS011;6085;49.452;8.502;2023-11-18T21:13:33;1.25;;;1.25;;
12048;SDS011;6085;49.452;8.502;2023-11-18T21:17:38;1.20;;;1.05;;
12048;SDS011;6085;49.452;8.502;2023-11-18T21:21:40;1.40;;;1.30;;
12048;SDS011;6085;49.452;8.502;2023-11-18T21:25:43;1.42;;;0.90;;
12048;SDS011;6085;49.452;8.502;2023-11-18T21:29:46;1.77;;;1.10;;
12048;SDS011;6085;49.452;8.502;2023-11-18T21:33:48;1.30;;;1.08;;
12048;SDS011;6085;49.452;8.502;2023-11-18T21:37:50;0.88;;;0.88;;
12048;SDS011;6085;49.452;8.502;2023-11-18T21:41:52;1.30;;;1.20;;
12048;SDS011;6085;49.452;8.502;2023-11-18T21:45:55;1.58;;;1.48;;
12048;SDS011;6085;49.452;8.502;2023-11-18T21:49:58;1.52;;;1.42;;
12048;SDS011;6085;49.452;8.502;2023-11-18T21:54:00;1.38;;;1.27;;
12048;SDS011;6085;49.452;8.502;2023-11-18T21:58:02;3.22;;;1.52;;
12048;SDS011;6085;49.452;8.502;2023-11-18T22:02:05;1.33;;;1.23;;
12048;SDS011;6085;49.452;8.502;2023-11-18T22:06:08;1.40;;;1.30;;
12048;SDS011;6085;49.452;8.502;2023-11-18T22:10:11;0.85;;;0.85;;
12048;SDS011;6085;49.452;8.502;2023-11-18T22:14:16;1.30;;;1.20;;
12048;SDS011;6085;49.452;8.502;2023-11-18T22:18:20;1.30;;;1.20;;
12048;SDS011;6085;49.452;8.502;2023-11-18T22:22:22;1.58;;;1.20;;
12048;SDS011;6085;49.452;8.502;2023-11-18T22:26:24;1.20;;;1.20;;
12048;SDS011;6085;49.452;8.502;2023-11-18T22:30:26;1.95;;;1.73;;
12048;SDS011;6085;49.452;8.502;2023-11-18T22:34:33;1.05;;;1.05;;
12048;SDS011;6085;49.452;8.502;2023-11-18T22:38:35;1.42;;;1.33;;
12048;SDS011;6085;49.452;8.502;2023-11-18T22:42:38;1.60;;;1.50;;
12048;SDS011;6085;49.452;8.502;2023-11-18T22:46:43;1.60;;;1.48;;
12048;SDS011;6085;49.452;8.502;2023-11-18T22:50:46;0.90;;;0.90;;
12048;SDS011;6085;49.452;8.502;2023-11-18T22:54:48;1.30;;;1.05;;
12048;SDS011;6085;49.452;8.502;2023-11-18T22:58:50;1.63;;;1.52;;
12048;SDS011;6085;49.452;8.502;2023-11-18T23:02:53;1.48;;;1.38;;
12048;SDS011;6085;49.452;8.502;2023-11-18T23:06:56;1.20;;;1.10;;
12048;SDS011;6085;49.452;8.502;2023-11-18T23:10:58;1.65;;;1.55;;
12048;SDS011;6085;49.452;8.502;2023-11-18T23:15:00;1.65;;;1.55;;
12048;SDS011;6085;49.452;8.502;2023-11-18T23:19:03;1.85;;;1.63;;
12048;SDS011;6085;49.452;8.502;2023-11-18T23:23:10;1.40;;;1.30;;
12048;SDS011;6085;49.452;8.502;2023-11-18T23:27:13;2.45;;;1.27;;
12048;SDS011;6085;49.452;8.502;2023-11-18T23:31:15;1.45;;;1.35;;
12048;SDS011;6085;49.452;8.502;2023-11-18T23:35:18;1.58;;;1.48;;
12048;SDS011;6085;49.452;8.502;2023-11-18T23:39:21;2.60;;;0.95;;
12048;SDS011;6085;49.452;8.502;2023-11-18T23:43:26;1.10;;;1.10;;
12048;SDS011;6085;49.452;8.502;2023-11-18T23:47:29;1.17;;;0.95;;
12048;SDS011;6085;49.452;8.502;2023-11-18T23:51:31;0.90;;;0.90;;
12048;SDS011;6085;49.452;8.502;2023-11-18T23:55:34;1.27;;;1.17;;
12048;SDS011;6085;49.452;8.502;2023-11-18T23:59:36;1.25;;;1.23;;
